createdAt,value
2023-05-19T00:07:32.711Z,9.8115
2023-05-19T00:09:33.672Z,9.8014
2023-05-19T00:10:34.787Z,9.7704
2023-05-19T00:13:37.322Z,9.7786
2023-05-19T00:20:40.060Z,9.7463
2023-05-19T00:21:41.099Z,9.7196
2023-05-19T00:23:42.369Z,9.7890
2023-05-19T00:24:42.912Z,9.7635
2023-05-19T00:25:43.599Z,9.7525
2023-05-19T00:26:44.749Z,9.8322
2023-05-19T00:28:45.662Z,9.7233
2023-05-19T00:29:46.719Z,9.6441
2023-05-19T00:34:49.368Z,9.7036
2023-05-19T00:36:50.043Z,9.6630
2023-05-19T00:37:50.088Z,9.6250
2023-05-19T00:38:50.956Z,9.6295
2023-05-19T00:39:51.941Z,9.5415
2023-05-19T00:40:52.523Z,9.4859
2023-05-19T00:41:52.840Z,9.5192
2023-05-19T00:42:53.300Z,9.5226
2023-05-19T00:43:54.149Z,9.5186
2023-05-19T00:45:54.522Z,9.5142
2023-05-19T00:46:54.772Z,9.4790
2023-05-19T00:48:53.054Z,9.4666
2023-05-19T00:49:53.390Z,9.4546
2023-05-19T00:50:54.376Z,9.4059
2023-05-19T00:51:55.089Z,9.3822
2023-05-19T00:52:57.026Z,9.3530
2023-05-19T01:00:00.524Z,9.4977
2023-05-19T01:05:04.142Z,9.4959
2023-05-19T01:06:04.704Z,9.4455
2023-05-19T01:08:04.549Z,9.2996
2023-05-19T01:10:05.566Z,9.2301
2023-05-19T01:11:06.125Z,9.2853
2023-05-19T01:18:09.122Z,8.9554
2023-05-19T01:25:14.664Z,8.8405
2023-05-19T01:27:15.383Z,8.7886
2023-05-19T01:29:16.427Z,8.7086
2023-05-19T01:37:21.055Z,8.8766
2023-05-19T01:40:21.560Z,8.9452
2023-05-19T01:41:22.479Z,8.9005
2023-05-19T01:42:23.270Z,8.9760
2023-05-19T01:43:23.661Z,8.9521
2023-05-19T01:45:26.309Z,8.9536
2023-05-19T01:47:27.944Z,8.9442
2023-05-19T01:58:35.410Z,8.9116
2023-05-19T01:59:36.504Z,8.9675
2023-05-19T02:00:37.569Z,8.9086
2023-05-19T02:01:38.409Z,8.8851
2023-05-19T02:08:42.002Z,8.9987
2023-05-19T02:10:43.378Z,9.0246
2023-05-19T02:11:44.520Z,8.9987
2023-05-19T02:12:44.664Z,8.9394
2023-05-19T02:13:45.684Z,8.9290
2023-05-19T02:14:46.036Z,8.8528
2023-05-19T02:15:49.077Z,8.7920
2023-05-19T02:16:50.410Z,8.7816
2023-05-19T02:17:51.115Z,8.8475
2023-05-19T02:18:51.537Z,8.8440
2023-05-19T02:19:51.531Z,8.7905
2023-05-19T02:20:52.442Z,8.8566
2023-05-19T02:21:52.988Z,8.9016
2023-05-19T02:22:53.936Z,8.9260
2023-05-19T02:23:54.592Z,8.9438
2023-05-19T02:24:54.639Z,8.8840
2023-05-19T02:25:55.484Z,8.8834
2023-05-19T02:26:55.978Z,8.8803
2023-05-19T02:27:57.350Z,8.9364
2023-05-19T02:28:58.107Z,8.8931
2023-05-19T02:29:58.102Z,8.8267
2023-05-19T02:31:00.069Z,8.8180
2023-05-19T02:32:00.906Z,8.8853
2023-05-19T02:39:03.809Z,9.0043
2023-05-19T02:42:06.234Z,9.0059
2023-05-19T02:44:07.122Z,8.9946
2023-05-19T02:53:19.514Z,8.9010
2023-05-19T02:54:19.723Z,8.8526
2023-05-19T02:55:21.066Z,8.8934
2023-05-19T02:56:22.181Z,8.9893
2023-05-19T02:57:24.166Z,8.9367
2023-05-19T02:58:24.300Z,8.9256
2023-05-19T02:59:25.708Z,8.9087
2023-05-19T03:00:24.937Z,8.8721
2023-05-19T03:01:25.667Z,8.8297
2023-05-19T03:02:26.006Z,8.8256
2023-05-19T03:03:26.651Z,8.8287
2023-05-19T03:04:26.682Z,8.8553
2023-05-19T03:05:28.070Z,8.8673
2023-05-19T03:06:29.066Z,8.9055
2023-05-19T03:11:32.120Z,8.6716
2023-05-19T03:12:32.565Z,8.7025
2023-05-19T03:13:33.489Z,8.7782
2023-05-19T03:15:34.080Z,8.8103
2023-05-19T03:16:35.248Z,8.8517
2023-05-19T03:17:35.593Z,8.7903
2023-05-19T03:18:35.699Z,8.7234
2023-05-19T03:19:37.109Z,8.7927
2023-05-19T03:20:40.922Z,8.7503
2023-05-19T03:21:39.976Z,8.7093
2023-05-19T03:25:42.301Z,8.7646
2023-05-19T03:27:43.017Z,8.7250
2023-05-19T03:28:43.569Z,8.6708
2023-05-19T03:30:43.371Z,8.6771
2023-05-19T03:31:43.492Z,8.6858
2023-05-19T03:32:43.768Z,8.6333
2023-05-19T03:33:44.557Z,8.5900
2023-05-19T03:35:45.741Z,8.4909
2023-05-19T03:36:46.068Z,8.5049
2023-05-19T03:37:46.692Z,8.5557
2023-05-19T03:38:47.801Z,8.4835
2023-05-19T03:44:50.264Z,8.7386
2023-05-19T03:45:50.926Z,8.7322
2023-05-19T03:46:52.717Z,8.6594
2023-05-19T03:47:53.412Z,8.7130
2023-05-19T03:48:54.979Z,8.6757
2023-05-19T03:53:55.600Z,8.3117
2023-05-19T03:54:57.020Z,8.2685
2023-05-19T04:04:01.936Z,8.4624
2023-05-19T04:09:04.212Z,8.4976
2023-05-19T04:10:04.570Z,8.5060
2023-05-19T04:12:07.721Z,8.4974
2023-05-19T04:14:09.666Z,8.4237
2023-05-19T04:15:09.802Z,8.3730
2023-05-19T04:16:11.425Z,8.3116
2023-05-19T04:18:11.872Z,8.3402
2023-05-19T04:20:13.182Z,8.4011
2023-05-19T04:21:13.864Z,8.4759
2023-05-19T04:22:15.057Z,8.5518
2023-05-19T04:23:15.814Z,8.5291
2023-05-19T04:24:17.327Z,8.5758
2023-05-19T04:25:17.490Z,8.5957
2023-05-19T04:26:17.964Z,8.5469
2023-05-19T04:27:19.163Z,8.6189
2023-05-19T04:30:21.929Z,8.5953
2023-05-19T04:31:22.051Z,8.6084
2023-05-19T04:32:22.851Z,8.6459
2023-05-19T04:33:24.270Z,8.6299
2023-05-19T04:34:25.318Z,8.6726
2023-05-19T04:38:26.847Z,8.8883
2023-05-19T04:39:27.489Z,8.9650
2023-05-19T04:40:27.806Z,8.9086
2023-05-19T04:41:28.759Z,9.0164
2023-05-19T04:42:29.883Z,9.0586
2023-05-19T04:43:30.160Z,9.1112
2023-05-19T04:44:31.559Z,9.1073
2023-05-19T04:45:31.738Z,9.0588
2023-05-19T04:47:34.627Z,9.1717
2023-05-19T04:53:39.282Z,9.2849
2023-05-19T04:54:39.511Z,9.3105
2023-05-19T04:55:39.873Z,9.4073
2023-05-19T04:56:40.443Z,9.4108
2023-05-19T05:04:43.595Z,9.6985
2023-05-19T05:05:45.365Z,9.6630
2023-05-19T05:07:45.593Z,9.7056
2023-05-19T05:08:46.688Z,9.7555
2023-05-19T05:09:47.093Z,9.6253
2023-05-19T05:10:47.706Z,9.7339
2023-05-19T05:22:54.908Z,10.1984
2023-05-19T05:23:56.150Z,10.0804
2023-05-19T05:24:56.251Z,10.1566
2023-05-19T05:25:56.650Z,10.2354
2023-05-19T05:28:59.807Z,9.9123
2023-05-19T05:30:00.298Z,9.8751
2023-05-19T05:31:00.518Z,9.8747
2023-05-19T05:32:00.927Z,9.8220
2023-05-19T05:33:01.270Z,9.7483
2023-05-19T05:34:02.333Z,9.6423
2023-05-19T05:35:03.404Z,9.6502
2023-05-19T05:36:04.882Z,9.5688
2023-05-19T05:37:06.278Z,9.5685
2023-05-19T05:38:07.047Z,9.5118
2023-05-19T05:39:08.397Z,9.5728
2023-05-19T05:40:08.807Z,9.5693
2023-05-19T05:41:09.856Z,9.5643
2023-05-19T05:42:11.063Z,9.4992
2023-05-19T05:43:12.534Z,9.4599
2023-05-19T05:44:12.767Z,9.4101
2023-05-19T05:45:13.212Z,9.4173
2023-05-19T05:56:20.348Z,9.4064
2023-05-19T05:57:20.813Z,9.2992
2023-05-19T05:58:21.726Z,9.3112
2023-05-19T05:59:22.713Z,9.2829
2023-05-19T06:01:22.168Z,9.3626
2023-05-19T06:02:23.786Z,9.2918
2023-05-19T06:03:24.719Z,9.1806
2023-05-19T06:04:26.005Z,9.2023
2023-05-19T06:05:26.446Z,9.2068
2023-05-19T06:06:27.486Z,9.2527
2023-05-19T06:07:28.007Z,9.2045
2023-05-19T06:11:07.230Z,9.1857
2023-05-19T06:12:08.276Z,9.2513
2023-05-19T06:13:08.890Z,9.1965
2023-05-19T06:14:09.516Z,9.1685
2023-05-19T06:15:09.782Z,9.1561
2023-05-19T06:17:12.830Z,9.2016
2023-05-19T06:18:13.850Z,9.1971
2023-05-19T06:23:18.183Z,9.0862
2023-05-19T06:24:18.853Z,9.0616
2023-05-19T06:25:18.878Z,9.0473
2023-05-19T06:29:21.377Z,9.0958
2023-05-19T06:30:21.836Z,9.0946
2023-05-19T06:31:22.930Z,9.1132
2023-05-19T06:32:22.919Z,9.1023
2023-05-19T06:33:25.556Z,9.1271
2023-05-19T06:34:25.681Z,9.1254
2023-05-19T06:39:30.351Z,9.1137
2023-05-19T06:40:31.498Z,9.1111
2023-05-19T06:42:32.022Z,9.1159
2023-05-19T06:43:32.396Z,9.1506
2023-05-19T06:44:33.477Z,9.1603
2023-05-19T06:45:34.216Z,9.2034
2023-05-19T06:46:34.346Z,9.1614
2023-05-19T06:47:35.498Z,9.1687
2023-05-19T06:48:35.784Z,9.1634
2023-05-19T06:49:37.761Z,9.1471
2023-05-19T06:54:39.136Z,9.1246
2023-05-19T06:55:54.356Z,9.1856
2023-05-19T06:56:40.725Z,9.2549
2023-05-19T06:58:43.640Z,9.2135
2023-05-19T06:59:43.934Z,9.2620
2023-05-19T07:00:44.883Z,9.2635
2023-05-19T07:09:47.200Z,9.4631
2023-05-19T07:12:48.598Z,9.7190
2023-05-19T07:15:49.701Z,9.9582
2023-05-19T07:16:50.253Z,9.8374
2023-05-19T07:17:52.120Z,9.8759
2023-05-19T07:18:52.507Z,9.9330
2023-05-19T07:19:53.810Z,9.6700
2023-05-19T07:20:54.102Z,9.7838
2023-05-19T07:21:55.620Z,9.8529
2023-05-19T07:22:55.903Z,9.7939
2023-05-19T07:23:57.113Z,9.7792
2023-05-19T07:26:58.849Z,9.7997
2023-05-19T07:27:59.266Z,9.8276
2023-05-19T07:29:12.203Z,10.0158
2023-05-19T07:30:02.156Z,10.1449
2023-05-19T07:31:03.278Z,10.3069
2023-05-19T07:32:04.074Z,10.3111
2023-05-19T07:33:05.340Z,10.3062
2023-05-19T07:34:06.244Z,10.2689
2023-05-19T07:35:06.575Z,10.2739
2023-05-19T07:36:07.984Z,9.9968
2023-05-19T07:39:11.295Z,10.2212
2023-05-19T07:40:12.006Z,10.2633
2023-05-19T07:41:13.022Z,10.4562
2023-05-19T07:42:13.514Z,10.3691
2023-05-19T07:43:14.702Z,10.1939
2023-05-19T07:44:15.581Z,10.4252
2023-05-19T07:45:16.710Z,10.4626
2023-05-19T07:49:18.357Z,10.8947
2023-05-19T07:50:19.310Z,11.0463
2023-05-19T07:51:19.558Z,10.9933
2023-05-19T07:54:21.657Z,11.1511
2023-05-19T07:55:22.106Z,11.4224
2023-05-19T07:56:22.823Z,11.2468
2023-05-19T07:57:23.207Z,11.2274
2023-05-19T07:58:24.073Z,11.4482
2023-05-19T07:59:25.427Z,11.1627
2023-05-19T08:00:26.070Z,11.3456
2023-05-19T08:01:27.134Z,10.9450
2023-05-19T08:02:27.670Z,11.1606
2023-05-19T08:04:29.651Z,11.0444
2023-05-19T08:05:30.303Z,11.3646
2023-05-19T08:06:30.867Z,11.2089
2023-05-19T08:07:31.354Z,10.9057
2023-05-19T08:12:33.891Z,10.6940
2023-05-19T08:13:34.669Z,10.7841
2023-05-19T08:14:34.962Z,10.7095
2023-05-19T08:15:35.478Z,10.8011
2023-05-19T08:16:36.021Z,10.8178
2023-05-19T08:17:36.928Z,10.7490
2023-05-19T08:18:37.766Z,11.0352
2023-05-19T08:21:38.737Z,11.0679
2023-05-19T08:22:38.971Z,11.0049
2023-05-19T08:23:39.902Z,11.1994
2023-05-19T08:24:40.705Z,11.2020
2023-05-19T08:25:42.358Z,11.2457
2023-05-19T08:26:43.232Z,11.1821
2023-05-19T08:27:44.022Z,11.1169
2023-05-19T08:28:44.969Z,10.9271
2023-05-19T08:29:45.977Z,11.2206
2023-05-19T08:33:47.502Z,10.8394
2023-05-19T08:34:47.883Z,10.9263
2023-05-19T08:35:47.922Z,11.1383
2023-05-19T08:36:49.060Z,10.8433
2023-05-19T08:37:49.155Z,10.8823
2023-05-19T08:38:50.117Z,10.8129
2023-05-19T08:39:51.327Z,10.8315
2023-05-19T08:40:51.735Z,10.8095
2023-05-19T08:52:19.439Z,11.5260
2023-05-19T08:54:19.789Z,11.6409
2023-05-19T08:55:20.777Z,12.0370
2023-05-19T08:56:21.872Z,12.1801
2023-05-19T08:57:22.927Z,12.2132
2023-05-19T08:58:23.765Z,12.3701
2023-05-19T08:59:24.600Z,12.0623
2023-05-19T09:00:25.689Z,12.4398
2023-05-19T09:01:25.938Z,12.0427
2023-05-19T09:02:27.057Z,12.4138
2023-05-19T09:03:28.691Z,12.5312
2023-05-19T09:04:29.994Z,12.4146
2023-05-19T09:05:29.465Z,12.2244
2023-05-19T09:06:30.187Z,11.8430
2023-05-19T09:07:31.459Z,12.0213
2023-05-19T09:08:32.582Z,11.9023
2023-05-19T09:09:32.753Z,12.1775
2023-05-19T09:10:33.476Z,12.1729
2023-05-19T09:11:33.616Z,12.1803
2023-05-19T09:12:34.824Z,11.9846
2023-05-19T09:13:36.007Z,11.5604
2023-05-19T09:14:37.208Z,11.3196
2023-05-19T09:32:51.180Z,11.2180
2023-05-19T09:33:51.426Z,11.5571
2023-05-19T09:34:52.551Z,11.0411
2023-05-19T09:35:52.684Z,11.0627
2023-05-19T09:36:53.861Z,11.1888
2023-05-19T09:37:54.132Z,11.1870
2023-05-19T09:38:55.160Z,11.4496
2023-05-19T09:39:56.112Z,11.9606
2023-05-19T09:40:57.048Z,12.0059
2023-05-19T09:41:58.065Z,12.0884
2023-05-19T09:42:59.133Z,12.3809
2023-05-19T09:44:00.189Z,11.9015
2023-05-19T09:45:01.270Z,12.3200
2023-05-19T09:46:02.288Z,12.2887
2023-05-19T09:47:03.246Z,12.5616
2023-05-19T09:48:04.171Z,12.3650
2023-05-19T09:49:04.186Z,12.2410
2023-05-19T09:50:05.089Z,12.3115
2023-05-19T09:51:06.206Z,12.4574
2023-05-19T09:52:07.214Z,13.0058
2023-05-19T09:53:08.191Z,12.7928
2023-05-19T09:54:08.298Z,12.7347
2023-05-19T09:55:09.342Z,12.8604
2023-05-19T09:56:09.365Z,12.8333
2023-05-19T09:57:10.384Z,12.6972
2023-05-19T10:20:28.893Z,12.9042
2023-05-19T10:21:30.063Z,13.0228
2023-05-19T10:22:31.270Z,12.3860
2023-05-19T10:23:32.049Z,12.8139
2023-05-19T10:24:33.162Z,12.7940
2023-05-19T10:25:34.425Z,12.5070
2023-05-19T10:26:34.331Z,12.4937
2023-05-19T10:27:35.271Z,12.6113
2023-05-19T10:28:36.190Z,12.6484
2023-05-19T10:29:37.098Z,13.0406
2023-05-19T10:30:38.150Z,13.3307
2023-05-19T10:31:39.319Z,13.2429
2023-05-19T10:32:39.397Z,13.2335
2023-05-19T10:33:40.432Z,13.0323
2023-05-19T10:34:41.277Z,13.4601
2023-05-19T10:35:42.199Z,13.6674
2023-05-19T10:36:42.266Z,13.6124
2023-05-19T10:37:43.449Z,13.6364
2023-05-19T10:38:44.527Z,13.2662
2023-05-19T10:39:45.094Z,13.1968
2023-05-19T10:40:46.093Z,13.0120
2023-05-19T10:41:47.063Z,12.7503
2023-05-19T10:42:46.928Z,13.0314
2023-05-19T10:43:48.182Z,13.0006
2023-05-19T10:44:48.733Z,13.0351
2023-05-19T10:45:48.944Z,13.2211
2023-05-19T10:46:49.474Z,13.5838
2023-05-19T11:03:04.226Z,14.2348
2023-05-19T11:04:05.989Z,13.8494
2023-05-19T11:05:06.457Z,14.1598
2023-05-19T11:06:07.481Z,14.1234
2023-05-19T11:07:08.644Z,13.8471
2023-05-19T11:08:09.668Z,13.5899
2023-05-19T11:09:10.695Z,13.2992
2023-05-19T11:10:10.895Z,13.3349
2023-05-19T11:11:11.829Z,13.5152
2023-05-19T11:12:12.754Z,13.4764
2023-05-19T11:13:14.909Z,13.3874
2023-05-19T11:14:14.737Z,13.5297
2023-05-19T11:15:15.718Z,13.8481
2023-05-19T11:16:16.889Z,14.2020
2023-05-19T11:17:18.078Z,13.9772
2023-05-19T11:18:18.785Z,13.7559
2023-05-19T11:19:20.002Z,13.7693
2023-05-19T11:20:20.109Z,14.4369
2023-05-19T11:21:21.227Z,14.7541
2023-05-19T11:22:22.152Z,14.9248
2023-05-19T11:23:23.442Z,14.8704
2023-05-19T11:24:23.448Z,14.6996
2023-05-19T11:25:24.435Z,14.6978
2023-05-19T11:26:25.271Z,14.0801
2023-05-19T11:27:26.153Z,14.1731
2023-05-19T11:28:26.992Z,14.0394
2023-05-19T11:29:27.858Z,13.5212
2023-05-19T11:30:28.849Z,13.4471
2023-05-19T11:31:29.777Z,13.0983
2023-05-19T11:32:30.955Z,13.2255
2023-05-19T11:33:30.813Z,13.2276
2023-05-19T11:34:31.673Z,13.5835
2023-05-19T11:35:35.444Z,13.6133
2023-05-19T11:36:32.809Z,13.8446
2023-05-19T11:37:33.576Z,14.4961
2023-05-19T11:38:34.388Z,14.7402
2023-05-19T11:39:35.401Z,14.7729
2023-05-19T11:40:36.222Z,14.4547
2023-05-19T11:41:37.267Z,14.6463
2023-05-19T11:42:38.268Z,15.7041
2023-05-19T11:43:39.275Z,16.1560
2023-05-19T11:44:40.482Z,16.5053
2023-05-19T11:45:41.188Z,15.8560
2023-05-19T11:46:42.352Z,15.4791
2023-05-19T11:48:00.895Z,15.9765
2023-05-19T11:48:44.021Z,15.4313
2023-05-19T11:49:44.862Z,15.3426
2023-05-19T11:50:45.896Z,14.9914
2023-05-19T11:51:47.015Z,15.1226
2023-05-19T11:52:48.180Z,15.3231
2023-05-19T11:53:48.381Z,15.2179
2023-05-19T11:54:49.442Z,15.8730
2023-05-19T11:55:50.932Z,15.7434
2023-05-19T11:56:50.775Z,15.8703
2023-05-19T11:58:02.903Z,16.3097
2023-05-19T11:58:52.374Z,15.8731
2023-05-19T11:59:53.392Z,16.1687
2023-05-19T12:00:54.448Z,16.3517
2023-05-19T12:01:54.612Z,16.5152
2023-05-19T12:02:54.707Z,16.8161
2023-05-19T12:03:54.796Z,16.3859
2023-05-19T12:04:55.831Z,17.3374
2023-05-19T12:05:56.618Z,17.0878
2023-05-19T12:06:56.459Z,16.6996
2023-05-19T12:07:57.674Z,17.1413
2023-05-19T12:08:58.609Z,16.5381
2023-05-19T12:09:59.670Z,16.4057
2023-05-19T12:11:00.531Z,15.9316
2023-05-19T12:12:01.493Z,15.7478
2023-05-19T12:13:02.441Z,15.6125
2023-05-19T12:14:03.411Z,15.7259
2023-05-19T12:15:04.334Z,15.9481
2023-05-19T12:16:05.402Z,15.5235
2023-05-19T12:17:06.533Z,15.7177
2023-05-19T12:18:07.748Z,15.6615
2023-05-19T12:19:08.678Z,15.7190
2023-05-19T12:20:09.916Z,15.9485
2023-05-19T12:21:09.877Z,15.7654
2023-05-19T12:22:10.058Z,15.7117
2023-05-19T12:23:10.082Z,16.0879
2023-05-19T12:24:10.878Z,16.4763
2023-05-19T12:25:11.778Z,16.1045
2023-05-19T12:26:11.881Z,16.2323
2023-05-19T12:27:12.987Z,15.7865
2023-05-19T12:28:14.808Z,15.7583
2023-05-19T12:38:22.091Z,16.3522
2023-05-19T12:39:22.985Z,16.6995
2023-05-19T12:40:24.056Z,16.6600
2023-05-19T12:41:25.228Z,16.4722
2023-05-19T12:42:26.152Z,16.4257
2023-05-19T12:43:27.320Z,15.8312
2023-05-19T12:44:28.301Z,16.0214
2023-05-19T12:45:29.174Z,15.6160
2023-05-19T12:46:30.406Z,15.5662
2023-05-19T12:47:31.353Z,15.6219
2023-05-19T12:48:31.436Z,15.7207
2023-05-19T12:49:32.518Z,15.2617
2023-05-19T12:50:32.966Z,15.3073
2023-05-19T12:51:33.494Z,15.3154
2023-05-19T12:52:34.149Z,15.5413
2023-05-19T12:53:35.080Z,15.3849
2023-05-19T12:54:36.296Z,15.3213
2023-05-19T12:57:37.457Z,15.7971
2023-05-19T12:58:37.496Z,16.2720
2023-05-19T12:59:38.992Z,15.9480
2023-05-19T13:00:39.150Z,15.9410
2023-05-19T13:01:40.581Z,15.9882
2023-05-19T13:02:41.543Z,15.4615
2023-05-19T13:03:42.060Z,15.6871
2023-05-19T13:04:43.173Z,16.1030
2023-05-19T13:05:44.218Z,16.0474
2023-05-19T13:06:45.168Z,16.2226
2023-05-19T13:07:45.979Z,15.8421
2023-05-19T13:08:46.823Z,16.3009
2023-05-19T13:09:47.055Z,16.1516
2023-05-19T13:10:47.935Z,16.4956
2023-05-19T13:11:48.835Z,15.9838
2023-05-19T13:12:49.849Z,16.2196
2023-05-19T13:13:49.962Z,16.0534
2023-05-19T13:14:51.660Z,15.3240
2023-05-19T13:15:51.191Z,14.8231
2023-05-19T13:16:52.275Z,14.6004
2023-05-19T13:17:53.273Z,14.5698
2023-05-19T13:18:53.670Z,14.3992
2023-05-19T13:19:54.382Z,14.2563
2023-05-19T13:20:55.314Z,14.2913
2023-05-19T13:21:56.467Z,14.3090
2023-05-19T13:22:57.418Z,14.2245
2023-05-19T13:23:58.486Z,14.2794
2023-05-19T13:24:59.442Z,14.3193
2023-05-19T13:26:00.053Z,14.5479
2023-05-19T13:27:00.263Z,14.6502
2023-05-19T13:28:01.560Z,14.7101
2023-05-19T13:29:02.502Z,14.7668
2023-05-19T13:30:03.418Z,14.9373
2023-05-19T13:31:04.425Z,14.8501
2023-05-19T13:32:04.397Z,14.7907
2023-05-19T13:33:05.652Z,14.7471
2023-05-19T13:34:06.204Z,14.9754
2023-05-19T13:35:07.004Z,14.8599
2023-05-19T13:36:07.378Z,14.5293
2023-05-19T13:48:16.355Z,14.7052
2023-05-19T13:49:17.360Z,14.6644
2023-05-19T13:50:18.344Z,14.7187
2023-05-19T13:51:19.302Z,14.8350
2023-05-19T13:52:20.380Z,14.9250
2023-05-19T13:53:21.450Z,14.9576
2023-05-19T13:54:22.677Z,15.1000
2023-05-19T13:55:23.729Z,14.9805
2023-05-19T13:56:24.555Z,15.1293
2023-05-19T13:57:25.505Z,15.2680
2023-05-19T13:58:26.438Z,15.0288
2023-05-19T13:59:27.448Z,14.7117
2023-05-19T14:00:27.865Z,14.6812
2023-05-19T14:01:28.022Z,14.6706
2023-05-19T14:13:43.685Z,13.8085
2023-05-19T14:14:43.699Z,13.6828
2023-05-19T14:15:43.794Z,13.7020
2023-05-19T14:16:45.300Z,13.6869
2023-05-19T14:17:46.390Z,13.6964
2023-05-19T14:18:46.475Z,13.7694
2023-05-19T14:19:47.658Z,13.7301
2023-05-19T14:20:48.676Z,13.7379
2023-05-19T14:21:49.687Z,13.7860
2023-05-19T14:22:50.675Z,13.8373
2023-05-19T14:23:51.919Z,13.9423
2023-05-19T14:24:52.680Z,13.9859
2023-05-19T14:25:53.777Z,14.0839
2023-05-19T14:26:53.899Z,14.0715
2023-05-19T14:27:55.044Z,14.0729
2023-05-19T14:28:56.247Z,14.0598
2023-05-19T14:29:57.138Z,14.2719
2023-05-19T14:30:57.272Z,14.1675
2023-05-19T14:31:58.555Z,14.0993
2023-05-19T14:32:59.589Z,14.0246
2023-05-19T14:34:00.786Z,14.0044
2023-05-19T14:35:01.727Z,13.9613
2023-05-19T14:36:02.783Z,13.9660
2023-05-19T14:37:03.840Z,13.8529
2023-05-19T14:38:04.998Z,13.8543
2023-05-19T14:39:05.771Z,13.8360
2023-05-19T14:40:08.813Z,13.8531
2023-05-19T14:45:10.230Z,14.0263
2023-05-19T15:16:34.241Z,14.3033
2023-05-19T15:17:35.498Z,14.2780
2023-05-19T15:18:36.662Z,14.2591
2023-05-19T15:19:36.894Z,14.1076
2023-05-19T15:20:40.278Z,14.0779
2023-05-19T15:21:40.550Z,14.0205
2023-05-19T15:23:41.261Z,13.7583
2023-05-19T15:28:03.122Z,13.2881
2023-05-19T15:29:04.370Z,13.2920
2023-05-19T15:30:05.139Z,13.1618
2023-05-19T15:32:06.197Z,13.0451
2023-05-19T15:34:07.636Z,13.0399
2023-05-19T15:35:07.938Z,13.0636
2023-05-19T15:36:08.221Z,13.0658
2023-05-19T15:37:09.674Z,13.0704
2023-05-19T15:38:09.366Z,13.0494
2023-05-19T15:39:10.697Z,13.0861
2023-05-19T15:40:11.974Z,13.0588
2023-05-19T15:46:15.456Z,12.9901
2023-05-19T15:47:15.968Z,13.1473
2023-05-19T15:48:17.960Z,13.1470
2023-05-19T15:49:18.248Z,13.1973
2023-05-19T15:52:21.286Z,13.0977
2023-05-19T15:53:22.558Z,13.1222
2023-05-19T15:54:23.332Z,13.1413
2023-05-19T15:55:24.150Z,13.1865
2023-05-19T15:56:24.263Z,13.2220
2023-05-19T15:57:25.356Z,13.2725
2023-05-19T15:58:26.185Z,13.3846
2023-05-19T15:59:27.389Z,13.3306
2023-05-19T16:01:28.122Z,13.4122
2023-05-19T16:03:27.714Z,13.4471
2023-05-19T16:04:28.788Z,13.3749
2023-05-19T16:05:29.093Z,13.4498
2023-05-19T16:06:30.079Z,13.5410
2023-05-19T16:07:30.475Z,13.5909
2023-05-19T16:08:31.009Z,13.5687
2023-05-19T16:09:32.227Z,13.6005
2023-05-19T16:10:32.898Z,13.6068
2023-05-19T16:12:33.824Z,13.4855
2023-05-19T16:13:35.112Z,13.5710
2023-05-19T16:15:35.602Z,13.5883
2023-05-19T16:16:37.052Z,13.5711
2023-05-19T16:17:36.848Z,13.6370
2023-05-19T16:18:38.378Z,13.6649
2023-05-19T16:19:38.385Z,13.7924
2023-05-19T16:21:39.128Z,13.6814
2023-05-19T16:32:44.369Z,13.8494
2023-05-19T16:33:44.597Z,13.5614
2023-05-19T16:34:45.581Z,13.5981
2023-05-19T16:36:46.830Z,13.5706
2023-05-19T16:38:47.891Z,13.6471
2023-05-19T16:39:48.370Z,13.6602
2023-05-19T16:45:52.597Z,13.4482
2023-05-19T16:46:53.309Z,13.4944
2023-05-19T16:47:54.677Z,13.5016
2023-05-19T16:48:55.825Z,13.4431
2023-05-19T16:49:56.017Z,13.4431
2023-05-19T16:51:57.154Z,13.3472
2023-05-19T16:52:57.500Z,13.4366
2023-05-19T16:53:57.664Z,13.4412
2023-05-19T16:56:00.451Z,13.3221
2023-05-19T16:57:01.493Z,13.2298
2023-05-19T16:59:02.118Z,13.2265
2023-05-19T17:00:03.302Z,13.2171
2023-05-19T17:01:03.774Z,13.1352
2023-05-19T17:02:05.117Z,13.1064
2023-05-19T17:03:05.368Z,13.0779
2023-05-19T17:04:05.577Z,13.0319
2023-05-19T17:05:07.186Z,12.9535
2023-05-19T17:06:07.431Z,12.8950
2023-05-19T17:08:08.374Z,12.8701
2023-05-19T17:09:09.267Z,12.8408
2023-05-19T17:10:10.599Z,12.8344
2023-05-19T17:11:11.458Z,12.8269
2023-05-19T17:12:11.808Z,12.7627
2023-05-19T17:13:12.995Z,12.7838
2023-05-19T17:14:14.205Z,12.7585
2023-05-19T17:15:15.035Z,12.7304
2023-05-19T17:16:15.913Z,12.7284
2023-05-19T17:17:16.045Z,12.7472
2023-05-19T17:18:16.880Z,12.7421
2023-05-19T17:19:17.836Z,12.7336
2023-05-19T17:20:18.382Z,12.6787
2023-05-19T17:21:19.589Z,12.6305
2023-05-19T17:22:20.178Z,12.5977
2023-05-19T17:23:20.867Z,12.5830
2023-05-19T17:24:21.775Z,12.5938
2023-05-19T17:25:22.146Z,12.6088
2023-05-19T17:26:23.153Z,12.5912
2023-05-19T17:27:24.039Z,12.5734
2023-05-19T17:32:26.185Z,12.5901
2023-05-19T17:34:27.470Z,12.5398
2023-05-19T17:35:28.657Z,12.4327
2023-05-19T17:36:29.042Z,12.3420
2023-05-19T17:37:30.524Z,12.3951
2023-05-19T17:40:32.008Z,12.4534
2023-05-19T17:42:32.547Z,12.4271
2023-05-19T17:43:32.809Z,12.4172
2023-05-19T17:45:36.439Z,12.3717
2023-05-19T17:54:41.864Z,12.3169
2023-05-19T17:55:42.398Z,12.3101
2023-05-19T17:56:43.939Z,12.3215
2023-05-19T17:57:45.662Z,12.2877
2023-05-19T17:58:45.975Z,12.2631
2023-05-19T17:59:46.099Z,12.2198
2023-05-19T18:00:47.752Z,12.2214
2023-05-19T18:01:47.913Z,12.1471
2023-05-19T18:02:48.404Z,12.2023
2023-05-19T18:03:50.013Z,12.2001
2023-05-19T18:08:52.853Z,12.1815
2023-05-19T18:09:53.215Z,12.1945
2023-05-19T18:11:56.193Z,12.1848
2023-05-19T18:12:57.428Z,12.1311
2023-05-19T18:14:59.101Z,12.0903
2023-05-19T18:16:00.268Z,12.1252
2023-05-19T18:17:00.519Z,12.1148
2023-05-19T18:18:01.099Z,12.1351
2023-05-19T18:19:01.952Z,12.1621
2023-05-19T18:30:09.731Z,12.0253
2023-05-19T18:31:10.669Z,11.9692
2023-05-19T18:32:11.097Z,11.9354
2023-05-19T18:33:12.109Z,11.9211
2023-05-19T18:34:11.496Z,11.9510
2023-05-19T18:35:12.644Z,11.9262
2023-05-19T18:36:13.963Z,11.9304
2023-05-19T18:37:14.920Z,11.9521
2023-05-19T18:38:15.103Z,11.9096
2023-05-19T18:39:16.115Z,11.8846
2023-05-19T18:40:16.550Z,11.8575
2023-05-19T18:41:16.820Z,11.8968
2023-05-19T18:43:20.345Z,11.8873
2023-05-19T18:44:21.438Z,11.8920
2023-05-19T18:53:28.614Z,11.7552
2023-05-19T18:54:29.595Z,11.7664
2023-05-19T18:56:30.283Z,11.7263
2023-05-19T18:57:30.793Z,11.7194
2023-05-19T18:59:33.852Z,11.7398
2023-05-19T19:00:35.269Z,11.7358
2023-05-19T19:01:35.292Z,11.7085
2023-05-19T19:02:36.335Z,11.6298
2023-05-19T19:03:37.781Z,11.5722
2023-05-19T19:04:38.247Z,11.6451
2023-05-19T19:05:39.609Z,11.6585
2023-05-19T19:06:42.014Z,11.6641
2023-05-19T19:15:47.580Z,11.5626
2023-05-19T19:16:48.699Z,11.5279
2023-05-19T19:17:49.625Z,11.5763
2023-05-19T19:18:50.687Z,11.5282
2023-05-19T19:19:51.281Z,11.5718
2023-05-19T19:20:51.487Z,11.5667
2023-05-19T19:21:52.365Z,11.5731
2023-05-19T19:22:52.750Z,11.5764
2023-05-19T19:23:53.946Z,11.5475
2023-05-19T19:24:55.121Z,11.5539
2023-05-19T19:25:55.653Z,11.5761
2023-05-19T19:26:57.080Z,11.5531
2023-05-19T19:27:57.322Z,11.5933
2023-05-19T19:28:57.414Z,11.5398
2023-05-19T19:29:58.302Z,11.5144
2023-05-19T19:36:03.797Z,11.4773
2023-05-19T19:37:05.272Z,11.4636
2023-05-19T19:39:06.154Z,11.4700
2023-05-19T19:40:06.243Z,11.4334
2023-05-19T19:41:07.240Z,11.4683
2023-05-19T19:42:08.415Z,11.4917
2023-05-19T19:43:09.064Z,11.4727
2023-05-19T19:44:10.290Z,11.4711
2023-05-19T19:45:12.496Z,11.4482
2023-05-19T19:46:12.271Z,11.4541
2023-05-19T19:47:12.783Z,11.4254
2023-05-19T19:48:13.091Z,11.3692
2023-05-19T19:49:13.959Z,11.3819
2023-05-19T19:50:15.061Z,11.3451
2023-05-19T19:51:16.294Z,11.2983
2023-05-19T19:52:17.636Z,11.2545
2023-05-19T19:58:21.215Z,11.2882
2023-05-19T19:59:21.571Z,11.3313
2023-05-19T20:00:22.403Z,11.3624
2023-05-19T20:01:22.869Z,11.3490
2023-05-19T20:07:26.012Z,11.2631
2023-05-19T20:08:27.107Z,11.2532
2023-05-19T20:10:30.370Z,11.2397
2023-05-19T20:12:31.409Z,11.2518
2023-05-19T20:13:32.928Z,11.2426
2023-05-19T20:14:32.087Z,11.2337
2023-05-19T20:15:33.093Z,11.2434